Time;durP1;ratioP1;P1;durP2;ratioP2;P2;SDS_P1;SDS_P2;PMS_P1;PMS_P2;Temp;Humidity;BMP_temperature;BMP_pressure;BME280_temperature;BME280_humidity;BME280_pressure;Samples;Min_cycle;Max_cycle;Signal;HPM_P1;HPM_P2
2022/04/03 00:01:31;;;;;;;3.95;1.88;;;2.80;99.90;;;;;;5016610;28;20105;-81
2022/04/03 00:03:56;;;;;;;16.00;2.45;;;2.80;99.90;;;;;;5010076;28;20037;-81
2022/04/03 00:06:22;;;;;;;6.75;2.08;;;2.80;99.90;;;;;;5010249;28;20030;-81
2022/04/03 00:08:48;;;;;;;3.65;1.63;;;2.90;99.90;;;;;;5009719;28;20169;-80
2022/04/03 00:11:13;;;;;;;3.85;2.03;;;2.80;99.90;;;;;;5010043;28;20127;-81
2022/04/03 00:13:39;;;;;;;4.53;2.00;;;2.80;99.90;;;;;;5009905;28;20026;-81
2022/04/03 00:16:05;;;;;;;3.65;2.10;;;2.80;99.90;;;;;;5027462;28;20030;-79
2022/04/03 00:18:36;;;;;;;4.28;1.95;;;2.80;99.90;;;;;;5009954;28;20080;-83
2022/04/03 00:21:05;;;;;;;25.13;2.53;;;2.80;99.90;;;;;;5009617;28;20072;-81
2022/04/03 00:23:32;;;;;;;4.38;1.98;;;2.70;99.90;;;;;;5027150;28;20041;-81
2022/04/03 00:25:58;;;;;;;2.88;1.70;;;2.80;99.90;;;;;;5010138;28;20029;-80
2022/04/03 00:28:26;;;;;;;5.22;1.90;;;2.80;99.90;;;;;;5009630;28;20033;-79
2022/04/03 00:30:52;;;;;;;4.38;2.15;;;2.70;99.90;;;;;;5009552;28;20646;-80
2022/04/03 00:33:17;;;;;;;4.45;1.90;;;2.70;99.90;;;;;;5009232;28;20990;-78
2022/04/03 00:35:43;;;;;;;3.53;1.60;;;2.70;99.90;;;;;;5026812;28;20034;-81
2022/04/03 00:38:08;;;;;;;2.60;1.50;;;2.70;99.90;;;;;;5009162;28;20517;-79
2022/04/03 00:40:34;;;;;;;4.35;2.13;;;2.70;99.90;;;;;;5033968;28;20036;-81
2022/04/03 00:43:00;;;;;;;3.72;1.77;;;2.70;99.90;;;;;;5046087;28;20048;-82
2022/04/03 00:45:29;;;;;;;3.13;1.67;;;2.80;99.90;;;;;;5046493;28;20022;-80
2022/04/03 00:47:59;;;;;;;3.10;1.45;;;2.70;99.90;;;;;;5046352;28;20033;-77
2022/04/03 00:50:24;;;;;;;1.55;1.17;;;2.70;99.90;;;;;;5028045;28;20478;-79
2022/04/03 00:52:50;;;;;;;1.90;1.10;;;2.70;99.90;;;;;;5028673;28;20053;-78
2022/04/03 00:55:16;;;;;;;4.00;1.60;;;2.60;99.90;;;;;;5046496;28;20034;-77
2022/04/03 00:57:46;;;;;;;3.88;1.80;;;2.60;99.90;;;;;;5028176;28;20089;-80
2022/04/03 01:00:12;;;;;;;2.17;1.02;;;2.60;99.90;;;;;;5046433;28;20029;-79
2022/04/03 01:02:40;;;;;;;3.13;1.48;;;2.50;99.90;;;;;;5028274;28;20534;-79
2022/04/03 01:05:07;;;;;;;2.33;1.10;;;2.50;99.90;;;;;;5045922;28;20393;-78
2022/04/03 01:07:34;;;;;;;3.13;1.52;;;2.40;99.90;;;;;;5045285;28;20051;-81
2022/04/03 01:10:01;;;;;;;4.25;1.67;;;2.40;99.90;;;;;;5045974;28;20025;-78
2022/04/03 01:12:27;;;;;;;2.67;1.20;;;2.30;99.90;;;;;;5046127;28;20029;-78
2022/04/03 01:14:53;;;;;;;4.28;1.90;;;2.30;99.90;;;;;;5046329;28;20032;-78
2022/04/03 01:17:19;;;;;;;4.95;1.65;;;2.20;99.90;;;;;;5042247;28;20037;-79
2022/04/03 01:19:45;;;;;;;4.72;2.35;;;2.20;99.90;;;;;;5027399;28;20108;-80
2022/04/03 01:22:16;;;;;;;4.55;1.92;;;2.10;99.90;;;;;;5028023;28;20033;-79
2022/04/03 01:24:55;;;;;;;2.83;1.50;;;2.00;99.90;;;;;;5037359;28;20104;-79
2022/04/03 01:27:21;;;;;;;3.08;1.48;;;2.00;99.90;;;;;;5046042;28;20029;-80
2022/04/03 01:29:48;;;;;;;7.70;2.00;;;2.00;99.90;;;;;;5027836;28;20030;-80
2022/04/03 01:32:13;;;;;;;3.85;1.77;;;2.00;99.90;;;;;;5027504;28;20030;-79
2022/04/03 01:34:39;;;;;;;2.70;1.17;;;2.00;99.90;;;;;;5045415;28;20046;-79
2022/04/03 01:37:05;;;;;;;3.15;1.60;;;2.00;99.90;;;;;;5028049;28;20037;-79
2022/04/03 01:39:31;;;;;;;13.65;1.60;;;2.00;99.90;;;;;;5045251;28;20106;-79
2022/04/03 01:41:57;;;;;;;7.63;1.70;;;2.00;99.90;;;;;;5045633;28;20033;-79
2022/04/03 01:44:23;;;;;;;2.70;1.25;;;2.10;99.90;;;;;;5027873;28;20515;-80
2022/04/03 01:46:49;;;;;;;2.45;1.23;;;2.10;99.90;;;;;;5045105;28;20030;-78
2022/04/03 01:49:14;;;;;;;2.72;1.45;;;2.20;99.90;;;;;;5027548;28;20024;-79
2022/04/03 01:51:40;;;;;;;3.22;1.58;;;2.20;99.90;;;;;;5045810;28;20037;-80
2022/04/03 01:54:05;;;;;;;4.93;1.77;;;2.20;99.90;;;;;;5027330;28;20105;-78
2022/04/03 01:56:34;;;;;;;4.45;1.67;;;2.20;99.90;;;;;;5027861;28;20037;-78
2022/04/03 01:59:01;;;;;;;14.25;2.78;;;2.30;99.90;;;;;;5026784;28;20026;-79
2022/04/03 02:01:29;;;;;;;10.02;3.65;;;2.30;99.90;;;;;;5027722;28;20125;-80
2022/04/03 02:03:55;;;;;;;4.97;2.80;;;2.30;99.90;;;;;;5045631;28;20033;-79
2022/04/03 02:06:24;;;;;;;1.95;1.23;;;2.30;99.90;;;;;;5045536;28;20037;-79
2022/04/03 02:08:51;;;;;;;2.10;1.40;;;2.30;99.90;;;;;;5027269;28;20021;-80
2022/04/03 02:11:16;;;;;;;6.63;1.67;;;2.30;99.90;;;;;;5045660;28;20032;-79
2022/04/03 02:13:42;;;;;;;3.10;1.50;;;2.30;99.90;;;;;;5027413;28;20057;-79
2022/04/03 02:16:09;;;;;;;2.03;0.95;;;2.30;99.90;;;;;;5027893;28;20022;-81
2022/04/03 02:18:38;;;;;;;5.78;2.10;;;2.20;99.90;;;;;;5027511;28;20057;-82
2022/04/03 02:21:04;;;;;;;4.50;1.33;;;2.20;99.90;;;;;;5044843;28;20029;-82
2022/04/03 02:23:30;;;;;;;4.03;1.85;;;2.10;99.90;;;;;;5027775;28;20048;-80
2022/04/03 02:25:56;;;;;;;3.47;2.03;;;2.10;99.90;;;;;;5044149;28;20031;-80
2022/04/03 02:28:21;;;;;;;5.60;2.50;;;2.00;99.90;;;;;;5027919;28;20033;-81
2022/04/03 02:30:48;;;;;;;5.88;2.78;;;2.00;99.90;;;;;;5028298;28;20017;-79
2022/04/03 02:33:14;;;;;;;5.43;2.58;;;1.90;99.90;;;;;;5048610;28;20061;-79
2022/04/03 02:35:40;;;;;;;8.52;3.03;;;1.80;99.90;;;;;;5031023;28;20029;-79
2022/04/03 02:38:05;;;;;;;5.68;2.72;;;1.80;99.90;;;;;;5031258;28;20136;-78
2022/04/03 02:40:31;;;;;;;8.32;2.80;;;1.80;99.90;;;;;;5029528;28;20053;-78
2022/04/03 02:42:57;;;;;;;3.63;2.17;;;1.70;99.90;;;;;;5031025;28;20064;-79
2022/04/03 02:45:23;;;;;;;4.80;2.58;;;1.70;99.90;;;;;;5049066;28;20466;-78
2022/04/03 02:47:54;;;;;;;6.00;2.67;;;1.60;99.90;;;;;;5031098;28;20033;-80
2022/04/03 02:50:25;;;;;;;5.93;2.55;;;1.60;99.90;;;;;;5049046;28;20099;-81
2022/04/03 02:52:51;;;;;;;5.53;2.45;;;1.50;99.90;;;;;;5048911;28;20052;-81
2022/04/03 02:55:18;;;;;;;4.90;2.00;;;1.60;99.90;;;;;;5048689;28;20041;-82
2022/04/03 02:57:44;;;;;;;5.15;2.20;;;1.50;99.90;;;;;;5048510;28;20029;-79
2022/04/03 03:00:17;;;;;;;3.95;2.05;;;1.40;99.90;;;;;;5048452;28;20040;-80
2022/04/03 03:02:44;;;;;;;5.53;2.03;;;1.40;99.90;;;;;;5030451;28;20038;-81
2022/04/03 03:05:10;;;;;;;6.38;2.10;;;1.30;99.90;;;;;;5046995;28;20025;-79
2022/04/03 03:07:45;;;;;;;3.22;1.42;;;1.30;99.90;;;;;;5048572;28;20048;-81
2022/04/03 03:10:14;;;;;;;3.47;1.90;;;1.30;99.90;;;;;;5048433;28;20032;-81
2022/04/03 03:12:40;;;;;;;4.28;1.70;;;1.30;99.90;;;;;;5030640;28;20052;-79
2022/04/03 03:15:06;;;;;;;4.65;1.65;;;1.20;99.90;;;;;;5048476;28;20040;-79
2022/04/03 03:17:31;;;;;;;8.18;1.65;;;1.20;99.90;;;;;;5029872;28;20030;-79
2022/04/03 03:20:00;;;;;;;2.85;1.70;;;1.20;99.90;;;;;;5030218;28;20036;-80
2022/04/03 03:22:28;;;;;;;4.38;1.85;;;1.20;99.90;;;;;;5045910;28;20069;-82
2022/04/03 03:24:54;;;;;;;4.22;2.10;;;1.20;99.90;;;;;;5016877;28;20030;-80
2022/04/03 03:27:20;;;;;;;3.28;1.83;;;1.10;99.90;;;;;;5010589;28;20037;-79
2022/04/03 03:29:45;;;;;;;5.38;2.13;;;1.10;99.90;;;;;;5027871;28;20034;-79
2022/04/03 03:32:11;;;;;;;3.72;1.80;;;1.10;99.90;;;;;;5020767;28;20033;-78
2022/04/03 03:34:38;;;;;;;7.00;2.72;;;1.10;99.90;;;;;;5047496;28;20091;-80
2022/04/03 03:37:04;;;;;;;3.50;1.80;;;1.00;99.90;;;;;;5029904;28;20468;-79
2022/04/03 03:39:30;;;;;;;3.78;1.48;;;1.00;99.90;;;;;;5047429;28;20036;-79
2022/04/03 03:41:56;;;;;;;5.00;2.05;;;1.00;99.90;;;;;;5047255;28;20033;-82
2022/04/03 03:44:22;;;;;;;4.93;1.63;;;1.00;99.90;;;;;;5047548;28;20052;-79
2022/04/03 03:46:48;;;;;;;7.95;1.80;;;1.00;99.90;;;;;;5029769;28;20029;-79
2022/04/03 03:49:14;;;;;;;4.55;1.70;;;1.00;99.90;;;;;;5029663;28;20022;-79
2022/04/03 03:51:40;;;;;;;4.00;1.98;;;1.00;99.90;;;;;;5029325;28;20481;-79
2022/04/03 03:54:06;;;;;;;3.80;2.28;;;0.90;99.90;;;;;;5047387;28;20026;-79
2022/04/03 03:56:32;;;;;;;3.72;1.85;;;0.90;99.90;;;;;;5029314;28;20044;-81
2022/04/03 03:58:58;;;;;;;11.73;2.42;;;0.90;99.90;;;;;;5047061;28;20032;-78
2022/04/03 04:01:23;;;;;;;6.35;2.92;;;0.90;99.90;;;;;;5045953;28;20018;-80
2022/04/03 04:03:49;;;;;;;9.82;2.53;;;1.00;99.90;;;;;;5046868;28;20034;-80
2022/04/03 04:06:15;;;;;;;7.25;3.63;;;0.80;99.90;;;;;;5029021;28;20448;-79
2022/04/03 04:08:42;;;;;;;7.03;2.53;;;0.80;99.90;;;;;;5029182;28;20027;-81
2022/04/03 04:11:08;;;;;;;4.90;2.05;;;0.70;99.90;;;;;;5028995;28;20112;-77
2022/04/03 04:13:34;;;;;;;4.72;2.20;;;0.60;99.90;;;;;;5028888;28;20021;-79
2022/04/03 04:16:00;;;;;;;5.55;2.10;;;0.60;99.90;;;;;;5046823;28;20033;-79
2022/04/03 04:18:26;;;;;;;5.20;2.45;;;0.60;99.90;;;;;;5046504;28;20470;-79
2022/04/03 04:20:53;;;;;;;4.72;2.10;;;0.60;99.90;;;;;;5045432;28;20053;-80
2022/04/03 04:23:19;;;;;;;5.65;2.13;;;0.50;99.90;;;;;;5027981;28;20145;-79
2022/04/03 04:25:48;;;;;;;2.78;1.52;;;0.50;99.90;;;;;;5044852;28;20493;-80
2022/04/03 04:28:14;;;;;;;5.30;1.77;;;0.60;99.90;;;;;;5046291;28;20026;-82
2022/04/03 04:30:40;;;;;;;5.72;1.52;;;0.50;99.90;;;;;;5028574;28;20025;-78
2022/04/03 04:33:06;;;;;;;7.15;2.33;;;0.40;99.90;;;;;;5027815;28;20045;-80
2022/04/03 04:35:32;;;;;;;4.78;2.20;;;0.40;99.90;;;;;;5028366;28;20036;-80
2022/04/03 04:37:59;;;;;;;6.03;1.88;;;0.30;99.90;;;;;;5046459;28;20032;-82
2022/04/03 04:40:29;;;;;;;3.50;1.90;;;0.40;99.90;;;;;;5034713;28;20032;-82
2022/04/03 04:42:56;;;;;;;5.90;2.45;;;0.30;99.90;;;;;;5045027;28;20057;-81
2022/04/03 04:45:22;;;;;;;9.82;2.20;;;0.30;99.90;;;;;;5028586;28;20040;-80
2022/04/03 04:47:48;;;;;;;4.82;1.67;;;0.30;99.90;;;;;;5027928;28;20052;-81
2022/04/03 04:50:14;;;;;;;5.10;2.55;;;0.30;99.90;;;;;;5046153;28;20496;-83
2022/04/03 04:52:41;;;;;;;5.43;2.13;;;0.30;99.90;;;;;;5027702;28;20029;-79
2022/04/03 04:55:08;;;;;;;2.72;1.40;;;0.30;99.90;;;;;;5027312;28;20044;-78
2022/04/03 04:57:35;;;;;;;5.47;2.20;;;0.30;99.90;;;;;;5028313;28;20721;-80
2022/04/03 05:00:03;;;;;;;5.30;2.00;;;0.30;99.90;;;;;;5027934;28;20025;-79
2022/04/03 05:02:28;;;;;;;10.50;2.55;;;0.30;99.90;;;;;;5027926;28;20091;-81
2022/04/03 05:04:56;;;;;;;4.80;2.15;;;0.30;99.90;;;;;;5028225;28;20021;-81
2022/04/03 05:07:23;;;;;;;3.70;1.60;;;0.30;99.90;;;;;;5026072;28;20097;-81
2022/04/03 05:09:50;;;;;;;3.85;1.73;;;0.30;99.90;;;;;;5045855;28;20057;-80
2022/04/03 05:12:16;;;;;;;4.57;1.95;;;0.40;99.90;;;;;;5027865;28;20025;-80
2022/04/03 05:14:42;;;;;;;4.00;1.92;;;0.40;99.90;;;;;;5027553;28;20060;-80
2022/04/03 05:17:08;;;;;;;3.08;1.58;;;0.40;99.90;;;;;;5027496;28;20037;-79
2022/04/03 05:19:35;;;;;;;3.85;1.40;;;0.40;99.90;;;;;;5045507;28;20045;-80
2022/04/03 05:22:02;;;;;;;2.42;1.17;;;0.40;99.90;;;;;;5045211;28;20037;-79
2022/04/03 05:24:28;;;;;;;3.38;1.23;;;0.50;99.90;;;;;;5027551;28;20025;-78
2022/04/03 05:26:59;;;;;;;2.00;1.50;;;0.50;99.90;;;;;;5024448;28;20033;-82
2022/04/03 05:29:26;;;;;;;3.55;1.65;;;0.50;99.90;;;;;;5012660;28;20117;-81
2022/04/03 05:31:51;;;;;;;3.90;1.75;;;0.50;99.90;;;;;;5022114;28;20097;-79
2022/04/03 05:34:17;;;;;;;7.25;2.08;;;0.60;99.90;;;;;;5043378;28;20053;-79
2022/04/03 05:36:43;;;;;;;5.35;1.80;;;0.60;99.90;;;;;;5043834;28;20102;-80
2022/04/03 05:39:17;;;;;;;3.60;1.60;;;0.70;99.90;;;;;;5027414;28;20509;-81
2022/04/03 05:41:43;;;;;;;3.45;2.15;;;0.70;99.90;;;;;;5027196;28;20052;-78
2022/04/03 05:44:09;;;;;;;6.20;1.73;;;0.80;99.90;;;;;;5025942;28;20083;-74
2022/04/03 05:46:34;;;;;;;2.28;1.50;;;0.90;99.90;;;;;;5044980;28;20022;-75
2022/04/03 05:49:07;;;;;;;3.30;1.30;;;1.00;99.90;;;;;;5031207;28;20040;-76
2022/04/03 05:51:33;;;;;;;5.95;1.80;;;1.00;99.90;;;;;;5011615;28;20032;-75
2022/04/03 05:53:59;;;;;;;3.75;1.40;;;1.10;99.90;;;;;;5045077;28;20038;-74
2022/04/03 05:56:27;;;;;;;9.15;1.50;;;1.10;99.90;;;;;;5044158;28;20029;-75
2022/04/03 05:58:54;;;;;;;2.47;1.15;;;1.20;99.90;;;;;;5026592;28;20076;-76
2022/04/03 06:01:20;;;;;;;5.25;1.88;;;1.30;99.90;;;;;;5044543;28;20021;-73
2022/04/03 06:03:46;;;;;;;2.67;1.55;;;1.30;99.90;;;;;;5043028;28;20033;-75
2022/04/03 06:06:11;;;;;;;2.10;1.13;;;1.30;99.90;;;;;;5032503;28;20049;-73
2022/04/03 06:08:38;;;;;;;2.83;1.85;;;1.40;99.90;;;;;;5037474;28;20037;-73
2022/04/03 06:11:04;;;;;;;6.15;1.40;;;1.40;99.90;;;;;;5048608;28;20057;-74
2022/04/03 06:13:31;;;;;;;3.13;1.40;;;1.40;99.90;;;;;;5032246;28;20060;-74
2022/04/03 06:15:57;;;;;;;3.35;1.63;;;1.40;99.90;;;;;;5032095;28;20124;-76
2022/04/03 06:18:23;;;;;;;3.13;1.75;;;1.40;99.90;;;;;;5051412;28;20025;-76
2022/04/03 06:20:49;;;;;;;2.58;1.30;;;1.40;99.90;;;;;;5039569;28;20041;-74
2022/04/03 06:23:19;;;;;;;3.63;1.60;;;1.40;99.90;;;;;;5044051;28;20029;-78
2022/04/03 06:25:48;;;;;;;2.90;1.55;;;1.40;99.90;;;;;;5042080;28;20095;-76
2022/04/03 06:28:13;;;;;;;14.45;1.83;;;1.40;99.90;;;;;;5027322;28;20065;-75
2022/04/03 06:30:40;;;;;;;2.88;1.60;;;1.50;99.90;;;;;;5050167;28;20091;-75
2022/04/03 06:33:05;;;;;;;3.65;1.73;;;1.50;99.90;;;;;;5050913;28;20049;-75
2022/04/03 06:35:31;;;;;;;2.80;1.90;;;1.50;99.90;;;;;;5050770;28;20120;-76
2022/04/03 06:37:57;;;;;;;2.92;1.33;;;1.50;99.90;;;;;;5043693;28;20102;-77
2022/04/03 06:40:27;;;;;;;6.07;1.90;;;1.60;99.90;;;;;;5048411;28;20026;-77
2022/04/03 06:42:54;;;;;;;1.90;1.40;;;1.60;99.90;;;;;;5030376;28;20129;-80
2022/04/03 06:45:20;;;;;;;3.03;1.73;;;1.60;99.90;;;;;;5023564;28;20191;-78
2022/04/03 06:47:46;;;;;;;2.88;1.40;;;1.70;99.90;;;;;;5042255;28;20033;-77
2022/04/03 06:50:13;;;;;;;6.57;2.45;;;1.80;99.90;;;;;;5029213;28;20079;-79
2022/04/03 06:52:38;;;;;;;4.28;2.00;;;1.80;99.90;;;;;;5026107;28;20025;-76
2022/04/03 06:55:06;;;;;;;3.15;1.73;;;1.90;99.90;;;;;;5038393;28;20030;-76
2022/04/03 06:57:33;;;;;;;7.38;2.13;;;2.00;99.90;;;;;;5033000;28;20041;-76
2022/04/03 06:59:59;;;;;;;2.85;1.67;;;2.10;99.90;;;;;;5033849;28;20033;-77
2022/04/03 07:02:25;;;;;;;4.15;1.63;;;2.30;99.90;;;;;;5027752;28;20045;-77
2022/04/03 07:04:50;;;;;;;1.65;1.08;;;2.40;99.90;;;;;;5039968;28;20041;-81
2022/04/03 07:07:38;;;;;;;8.32;1.42;;;2.70;99.90;;;;;;5041328;28;20033;-78
2022/04/03 07:10:09;;;;;;;2.35;1.23;;;2.80;99.90;;;;;;5050936;28;20029;-77
2022/04/03 07:12:35;;;;;;;3.55;1.10;;;2.90;99.90;;;;;;5045872;28;20025;-77
2022/04/03 07:15:02;;;;;;;5.03;1.60;;;3.00;99.90;;;;;;5046182;28;20040;-78
2022/04/03 07:17:29;;;;;;;7.30;1.30;;;3.20;99.90;;;;;;5022296;28;20037;-77
2022/04/03 07:19:57;;;;;;;5.00;1.15;;;3.40;99.90;;;;;;5035335;28;20068;-81
2022/04/03 07:22:23;;;;;;;1.75;0.98;;;3.50;99.90;;;;;;5027500;28;20038;-74
2022/04/03 07:24:50;;;;;;;1.95;1.15;;;3.60;99.90;;;;;;5027184;28;20497;-76
2022/04/03 07:27:16;;;;;;;1.20;0.90;;;3.60;99.90;;;;;;5036697;28;20052;-74
2022/04/03 07:29:42;;;;;;;1.35;0.93;;;3.60;99.90;;;;;;5011299;28;20030;-72
2022/04/03 08:27:01;;;;;;;1.70;1.02;;;4.10;99.90;;;;;;3764747;26;20060;-75
2022/04/03 08:29:28;;;;;;;1.17;0.88;;;4.20;99.90;;;;;;4993027;28;20030;-76
2022/04/03 08:31:54;;;;;;;1.15;0.93;;;4.30;99.90;;;;;;4988205;28;20034;-75
2022/04/03 08:34:32;;;;;;;2.72;1.17;;;4.30;99.90;;;;;;4987731;28;20033;-77
2022/04/03 08:36:58;;;;;;;1.65;1.08;;;4.40;99.90;;;;;;4999044;28;20038;-75
2022/04/03 08:39:24;;;;;;;1.02;0.70;;;4.50;99.90;;;;;;4985991;28;20494;-75
2022/04/03 08:41:49;;;;;;;2.05;1.17;;;4.50;99.90;;;;;;4993854;28;20109;-74
2022/04/03 08:44:15;;;;;;;2.83;0.93;;;4.60;99.90;;;;;;4978385;28;20069;-74
2022/04/03 08:46:46;;;;;;;1.17;0.60;;;4.50;99.90;;;;;;4993491;28;20026;-75
2022/04/03 08:49:13;;;;;;;3.20;0.98;;;4.30;99.90;;;;;;5004182;28;20410;-75
2022/04/03 08:51:41;;;;;;;3.53;1.95;;;4.20;99.90;;;;;;5004405;28;20049;-74
2022/04/03 08:54:08;;;;;;;2.63;1.55;;;4.20;99.90;;;;;;4992376;28;20038;-74
2022/04/03 08:56:34;;;;;;;4.97;3.15;;;4.00;99.90;;;;;;5002820;28;20030;-74
2022/04/03 08:59:00;;;;;;;3.97;1.90;;;4.10;99.90;;;;;;4988152;28;20030;-73
2022/04/03 09:01:26;;;;;;;1.55;1.10;;;4.20;99.90;;;;;;4997447;28;20027;-73
2022/04/03 09:03:51;;;;;;;1.35;0.98;;;4.60;99.90;;;;;;4985405;28;20097;-73
2022/04/03 09:06:19;;;;;;;1.38;1.23;;;5.00;99.90;;;;;;4988382;28;20037;-74
2022/04/03 09:08:46;;;;;;;2.88;1.58;;;5.50;99.90;;;;;;4992443;28;20057;-73
2022/04/03 09:11:13;;;;;;;2.88;0.88;;;5.80;99.90;;;;;;5000758;28;20118;-73
2022/04/03 09:13:43;;;;;;;1.85;0.90;;;5.90;99.90;;;;;;4991394;28;20467;-74
2022/04/03 09:16:10;;;;;;;2.80;1.15;;;5.70;99.90;;;;;;5000673;28;20090;-72
2022/04/03 09:18:51;;;;;;;3.13;1.20;;;5.50;99.90;;;;;;4990540;28;20044;-73
2022/04/03 09:21:17;;;;;;;2.40;1.10;;;5.20;99.90;;;;;;4992322;28;20041;-72
2022/04/03 09:24:06;;;;;;;1.85;1.02;;;5.00;99.90;;;;;;4995205;28;20038;-72
2022/04/03 09:26:33;;;;;;;1.48;1.00;;;4.70;99.90;;;;;;4971852;28;20109;-72
2022/04/03 09:29:16;;;;;;;1.08;0.90;;;4.70;99.90;;;;;;4979591;28;20502;-72
2022/04/03 09:31:45;;;;;;;4.88;0.98;;;4.90;99.90;;;;;;4978976;28;20037;-73
2022/04/03 09:34:18;;;;;;;1.92;1.25;;;5.30;99.90;;;;;;4986346;28;20102;-73
2022/04/03 09:37:01;;;;;;;1.88;0.85;;;5.70;99.90;;;;;;4998188;28;20022;-73
2022/04/03 09:39:30;;;;;;;1.67;1.08;;;6.10;99.90;;;;;;4978900;28;20023;-74
2022/04/03 09:42:13;;;;;;;1.77;1.20;;;6.40;99.90;;;;;;4984303;28;20050;-73
2022/04/03 09:44:40;;;;;;;10.50;1.15;;;6.70;99.90;;;;;;4983195;28;20072;-73
2022/04/03 09:47:17;;;;;;;0.93;0.70;;;6.80;99.90;;;;;;4988269;28;20069;-73
2022/04/03 09:49:52;;;;;;;2.60;0.82;;;6.90;99.90;;;;;;4968103;28;20593;-74
2022/04/03 09:52:37;;;;;;;0.65;0.50;;;7.10;99.90;;;;;;4993433;28;20093;-73
2022/04/03 09:55:23;;;;;;;0.55;0.45;;;7.20;99.90;;;;;;4983294;28;20031;-74
2022/04/03 09:58:00;;;;;;;0.73;0.52;;;7.50;99.90;;;;;;4984323;28;20126;-72
2022/04/03 10:00:37;;;;;;;1.45;0.85;;;7.70;99.90;;;;;;4967974;28;20034;-75
2022/04/03 10:03:04;;;;;;;0.45;0.45;;;7.90;99.90;;;;;;4966635;28;20530;-74
2022/04/03 10:05:32;;;;;;;1.15;0.70;;;8.10;99.90;;;;;;4964575;28;20035;-74
2022/04/03 10:08:03;;;;;;;1.95;0.90;;;8.20;99.90;;;;;;4969111;28;20053;-74
2022/04/03 10:10:34;;;;;;;3.70;0.70;;;8.20;99.90;;;;;;4986027;28;20034;-73
2022/04/03 10:13:00;;;;;;;1.15;0.32;;;8.00;99.90;;;;;;4986007;28;20086;-73
2022/04/03 10:15:27;;;;;;;1.25;0.20;;;8.20;99.90;;;;;;4982992;28;20062;-73
2022/04/03 10:17:53;;;;;;;0.50;0.28;;;8.20;99.90;;;;;;4987459;28;20037;-75
2022/04/03 10:20:20;;;;;;;1.00;0.52;;;8.10;99.90;;;;;;5000725;28;20014;-74
2022/04/03 10:22:51;;;;;;;6.43;0.70;;;8.00;99.90;;;;;;4987991;28;20042;-73
2022/04/03 10:25:24;;;;;;;3.50;0.85;;;8.20;99.90;;;;;;4993310;28;20030;-71
2022/04/03 10:27:51;;;;;;;4.68;0.75;;;8.30;99.90;;;;;;4999793;28;20066;-72
2022/04/03 10:30:17;;;;;;;5.35;0.88;;;8.60;99.90;;;;;;4984994;28;20059;-74
2022/04/03 10:32:56;;;;;;;2.20;1.00;;;8.60;99.90;;;;;;4974129;28;20057;-73
2022/04/03 10:35:22;;;;;;;1.08;0.70;;;8.80;99.90;;;;;;4976504;28;20023;-75
2022/04/03 10:38:05;;;;;;;0.38;0.38;;;9.30;99.90;;;;;;4984842;28;20533;-75
2022/04/03 10:40:34;;;;;;;0.85;0.60;;;9.50;99.90;;;;;;4984528;28;20037;-72
2022/04/03 10:43:02;;;;;;;1.55;0.77;;;9.40;99.90;;;;;;4988420;28;20491;-74
2022/04/03 10:45:34;;;;;;;0.13;0.13;;;9.20;99.90;;;;;;4984725;28;20058;-71
2022/04/03 10:48:21;;;;;;;1.10;0.85;;;9.10;99.90;;;;;;4985103;28;20039;-75
2022/04/03 10:50:57;;;;;;;0.30;0.30;;;9.50;99.90;;;;;;4989951;28;20026;-72
2022/04/03 10:53:25;;;;;;;0.52;0.47;;;9.60;99.90;;;;;;5008335;28;20105;-73
2022/04/03 10:55:55;;;;;;;1.20;0.63;;;9.40;99.90;;;;;;5008581;28;20030;-74
2022/04/03 10:58:21;;;;;;;0.80;0.43;;;9.00;99.90;;;;;;5005407;28;20023;-74
2022/04/03 11:00:48;;;;;;;3.92;0.70;;;8.50;99.90;;;;;;4987947;28;20074;-73
2022/04/03 11:03:13;;;;;;;3.30;0.50;;;8.20;99.90;;;;;;4976643;28;20439;-74
2022/04/03 11:05:39;;;;;;;1.08;0.60;;;8.00;99.90;;;;;;4988271;28;20086;-74
2022/04/03 11:08:05;;;;;;;4.28;1.17;;;7.80;99.90;;;;;;4971968;28;20027;-75
2022/04/03 11:10:54;;;;;;;2.78;0.60;;;7.70;99.90;;;;;;4988796;28;20501;-74
2022/04/03 11:13:32;;;;;;;1.17;0.35;;;7.50;99.90;;;;;;4980680;28;20032;-74
2022/04/03 11:16:06;;;;;;;0.60;0.50;;;7.40;99.90;;;;;;4969379;28;20543;-74
2022/04/03 11:18:43;;;;;;;2.30;1.30;;;7.40;99.90;;;;;;4986777;28;20046;-74
2022/04/03 11:21:25;;;;;;;1.88;1.05;;;7.70;99.90;;;;;;4988414;28;20030;-70
2022/04/03 11:24:12;;;;;;;1.92;0.73;;;8.00;99.90;;;;;;4988627;28;20035;-74
2022/04/03 11:26:40;;;;;;;0.25;0.20;;;8.10;99.90;;;;;;4988249;28;20054;-72
2022/04/03 11:29:07;;;;;;;0.28;0.20;;;8.20;99.90;;;;;;4987886;28;20089;-73
2022/04/03 11:31:35;;;;;;;0.77;0.45;;;8.30;99.90;;;;;;4987220;28;20027;-71
2022/04/03 11:34:01;;;;;;;0.40;0.32;;;8.60;99.90;;;;;;4987097;28;20090;-73
2022/04/03 11:36:30;;;;;;;0.85;0.52;;;9.10;99.90;;;;;;4984562;28;20554;-74
2022/04/03 11:38:56;;;;;;;0.25;0.10;;;9.50;99.90;;;;;;4983242;28;20034;-76
2022/04/03 11:41:27;;;;;;;0.77;0.30;;;9.50;99.90;;;;;;4991861;28;20027;-74
2022/04/03 11:44:09;;;;;;;2.15;0.30;;;9.30;99.90;;;;;;4986819;28;20054;-76
2022/04/03 11:46:48;;;;;;;0.32;0.22;;;9.40;99.90;;;;;;4970475;28;20089;-74
2022/04/03 11:49:21;;;;;;;0.20;0.20;;;9.80;99.90;;;;;;4983074;28;20032;-75
2022/04/03 11:51:52;;;;;;;1.30;0.20;;;10.40;99.90;;;;;;4988828;28;20093;-75
2022/04/03 11:54:18;;;;;;;0.63;0.30;;;10.80;99.90;;;;;;4987009;28;20027;-76
2022/04/03 11:56:44;;;;;;;1.65;0.52;;;10.80;99.90;;;;;;4988183;28;20034;-75
2022/04/03 11:59:10;;;;;;;4.80;0.82;;;10.50;99.90;;;;;;4967002;28;20042;-75
2022/04/03 12:01:38;;;;;;;3.53;0.35;;;10.30;99.90;;;;;;4968557;28;20063;-74
2022/04/03 12:04:15;;;;;;;0.47;0.20;;;10.30;99.90;;;;;;4951120;28;20043;-76
2022/04/03 12:06:47;;;;;;;0.40;0.25;;;10.20;99.90;;;;;;4968440;28;20059;-73
2022/04/03 12:09:27;;;;;;;0.65;0.35;;;9.50;99.90;;;;;;4975644;28;20031;-78
2022/04/03 12:11:53;;;;;;;0.63;0.40;;;8.90;99.90;;;;;;4980196;28;20027;-76
2022/04/03 12:14:30;;;;;;;2.67;0.52;;;8.40;99.90;;;;;;4966697;28;20038;-74
2022/04/03 12:16:58;;;;;;;1.77;0.45;;;8.10;99.90;;;;;;4951396;28;20030;-75
2022/04/03 12:19:24;;;;;;;3.47;0.50;;;7.90;99.90;;;;;;4955891;28;20380;-75
2022/04/03 12:22:00;;;;;;;0.20;0.10;;;7.90;99.90;;;;;;4985147;28;20027;-75
2022/04/03 12:24:28;;;;;;;3.78;1.13;;;8.40;99.90;;;;;;4960031;28;20034;-73
2022/04/03 12:26:59;;;;;;;4.32;0.52;;;9.20;99.90;;;;;;4987072;28;20051;-75
2022/04/03 12:29:29;;;;;;;0.75;0.30;;;10.00;99.90;;;;;;4968887;28;20031;-75
2022/04/03 12:32:10;;;;;;;0.82;0.52;;;10.70;99.90;;;;;;4969733;28;20027;-77
2022/04/03 12:34:37;;;;;;;0.45;0.30;;;11.20;99.90;;;;;;4974622;28;20035;-77
2022/04/03 12:37:06;;;;;;;0.52;0.25;;;11.00;99.90;;;;;;4958161;28;20064;-76
2022/04/03 12:39:37;;;;;;;1.23;0.40;;;10.60;99.90;;;;;;4968753;28;20402;-74
2022/04/03 12:42:17;;;;;;;1.13;0.50;;;10.10;99.90;;;;;;4969115;28;20043;-75
2022/04/03 12:45:13;;;;;;;2.67;0.30;;;9.60;99.90;;;;;;4968003;28;20035;-74
2022/04/03 12:47:44;;;;;;;2.40;0.22;;;9.70;99.90;;;;;;4966849;28;20048;-75
2022/04/03 12:50:13;;;;;;;0.10;0.10;;;10.20;99.90;;;;;;4966123;28;20059;-72
2022/04/03 12:52:43;;;;;;;1.02;0.22;;;10.30;99.90;;;;;;4969536;28;20086;-73
2022/04/03 12:55:21;;;;;;;3.67;0.45;;;10.80;99.90;;;;;;4969551;28;20033;-76
2022/04/03 13:00:48;;;;;;;0.50;0.25;;;11.20;99.90;;;;;;4986433;28;20041;-77
2022/04/03 13:03:29;;;;;;;3.33;0.50;;;10.90;99.90;;;;;;4964200;28;20475;-74
2022/04/03 13:06:27;;;;;;;1.45;0.55;;;10.60;99.90;;;;;;4976046;28;20038;-75
2022/04/03 13:09:06;;;;;;;2.85;0.35;;;10.30;99.90;;;;;;4971148;28;20178;-76
2022/04/03 13:11:39;;;;;;;3.83;0.82;;;10.20;99.90;;;;;;4966510;28;20638;-73
2022/04/03 13:14:26;;;;;;;0.47;0.30;;;9.90;99.90;;;;;;4949468;29;20054;-76
2022/04/03 13:16:57;;;;;;;0.60;0.40;;;9.70;99.90;;;;;;4949576;29;20182;-73
2022/04/03 13:19:25;;;;;;;0.52;0.22;;;9.50;99.90;;;;;;4972751;28;20027;-76
2022/04/03 13:21:54;;;;;;;0.10;0.08;;;9.70;99.90;;;;;;4973845;28;20026;-77
2022/04/03 13:24:24;;;;;;;0.50;0.20;;;10.30;99.90;;;;;;4968421;28;20038;-79
2022/04/03 13:26:55;;;;;;;2.75;0.32;;;10.70;99.90;;;;;;4985336;28;20083;-73
2022/04/03 13:29:21;;;;;;;0.75;0.30;;;11.10;99.90;;;;;;4968863;28;20038;-73
2022/04/03 13:31:48;;;;;;;0.28;0.22;;;11.00;99.90;;;;;;4968434;28;20034;-75
2022/04/03 13:34:14;;;;;;;0.77;0.20;;;10.70;99.90;;;;;;4986458;28;20042;-78
2022/04/03 13:36:40;;;;;;;0.80;0.30;;;10.70;99.90;;;;;;4986389;28;20030;-75
2022/04/03 13:39:09;;;;;;;1.08;0.45;;;11.10;99.90;;;;;;4968453;28;20475;-77
2022/04/03 13:41:38;;;;;;;0.47;0.15;;;10.90;99.90;;;;;;4968488;28;20483;-78
2022/04/03 13:44:08;;;;;;;1.05;0.50;;;10.70;99.90;;;;;;4968738;28;20039;-74
2022/04/03 13:46:37;;;;;;;6.13;0.60;;;10.50;99.90;;;;;;4981948;28;20063;-76
2022/04/03 13:49:15;;;;;;;1.42;0.60;;;10.60;99.90;;;;;;4984499;28;20035;-75
2022/04/03 13:51:41;;;;;;;0.20;0.20;;;11.20;99.90;;;;;;4969451;28;20058;-76
2022/04/03 13:54:08;;;;;;;0.82;0.40;;;11.40;99.90;;;;;;4952305;28;20022;-75
2022/04/03 13:56:34;;;;;;;0.88;0.30;;;11.20;99.90;;;;;;4968124;28;20022;-75
2022/04/03 13:59:00;;;;;;;0.28;0.28;;;11.40;99.90;;;;;;4962173;28;20041;-75
2022/04/03 14:01:27;;;;;;;0.40;0.20;;;11.40;99.90;;;;;;4985432;28;20030;-76